sensor_id;sensor_type;location;lat;lon;timestamp;P1;durP1;ratioP1;P2;durP2;ratioP2
66327;SDS011;53133;52.862;6.602;2023-07-29T00:01:11;17.20;;;10.82;;
66327;SDS011;53133;52.862;6.602;2023-07-29T00:03:37;16.35;;;10.73;;
66327;SDS011;53133;52.862;6.602;2023-07-29T00:06:03;13.98;;;9.65;;
66327;SDS011;53133;52.862;6.602;2023-07-29T00:08:28;14.98;;;9.90;;
66327;SDS011;53133;52.862;6.602;2023-07-29T00:10:54;15.60;;;10.75;;
66327;SDS011;53133;52.862;6.602;2023-07-29T00:13:20;12.77;;;10.38;;
66327;SDS011;53133;52.862;6.602;2023-07-29T00:15:45;15.20;;;11.55;;
66327;SDS011;53133;52.862;6.602;2023-07-29T00:18:11;14.88;;;9.93;;
66327;SDS011;53133;52.862;6.602;2023-07-29T00:20:37;16.35;;;10.52;;
66327;SDS011;53133;52.862;6.602;2023-07-29T00:23:02;15.25;;;10.60;;
66327;SDS011;53133;52.862;6.602;2023-07-29T00:25:28;15.00;;;10.50;;
66327;SDS011;53133;52.862;6.602;2023-07-29T00:27:55;12.30;;;9.98;;
66327;SDS011;53133;52.862;6.602;2023-07-29T00:30:21;13.95;;;10.57;;
66327;SDS011;53133;52.862;6.602;2023-07-29T00:32:46;16.08;;;10.75;;
66327;SDS011;53133;52.862;6.602;2023-07-29T00:35:12;13.52;;;9.93;;
66327;SDS011;53133;52.862;6.602;2023-07-29T00:37:38;13.38;;;9.82;;
66327;SDS011;53133;52.862;6.602;2023-07-29T00:40:06;12.63;;;10.35;;
66327;SDS011;53133;52.862;6.602;2023-07-29T00:42:38;15.13;;;9.93;;
66327;SDS011;53133;52.862;6.602;2023-07-29T00:45:04;14.77;;;9.77;;
66327;SDS011;53133;52.862;6.602;2023-07-29T00:47:32;12.35;;;9.70;;
66327;SDS011;53133;52.862;6.602;2023-07-29T00:49:58;13.18;;;9.80;;
66327;SDS011;53133;52.862;6.602;2023-07-29T00:52:25;13.43;;;9.20;;
66327;SDS011;53133;52.862;6.602;2023-07-29T00:54:50;13.18;;;9.90;;
66327;SDS011;53133;52.862;6.602;2023-07-29T00:57:16;12.90;;;9.07;;
66327;SDS011;53133;52.862;6.602;2023-07-29T00:59:42;11.38;;;9.05;;
66327;SDS011;53133;52.862;6.602;2023-07-29T01:02:08;11.05;;;8.73;;
66327;SDS011;53133;52.862;6.602;2023-07-29T01:04:34;12.10;;;8.73;;
66327;SDS011;53133;52.862;6.602;2023-07-29T01:07:14;12.20;;;9.57;;
66327;SDS011;53133;52.862;6.602;2023-07-29T01:12:18;12.23;;;9.00;;
66327;SDS011;53133;52.862;6.602;2023-07-29T01:14:57;12.18;;;9.02;;
66327;SDS011;53133;52.862;6.602;2023-07-29T01:17:32;11.32;;;8.43;;
66327;SDS011;53133;52.862;6.602;2023-07-29T01:22:31;11.80;;;8.48;;
66327;SDS011;53133;52.862;6.602;2023-07-29T01:24:59;11.23;;;8.85;;
66327;SDS011;53133;52.862;6.602;2023-07-29T01:27:24;11.02;;;8.60;;
66327;SDS011;53133;52.862;6.602;2023-07-29T01:29:51;11.77;;;8.90;;
66327;SDS011;53133;52.862;6.602;2023-07-29T01:32:19;10.35;;;7.97;;
66327;SDS011;53133;52.862;6.602;2023-07-29T01:37:39;10.52;;;8.45;;
66327;SDS011;53133;52.862;6.602;2023-07-29T01:40:07;11.63;;;8.65;;
66327;SDS011;53133;52.862;6.602;2023-07-29T01:42:34;11.32;;;8.43;;
66327;SDS011;53133;52.862;6.602;2023-07-29T01:45:01;9.13;;;7.95;;
66327;SDS011;53133;52.862;6.602;2023-07-29T01:47:26;13.05;;;8.27;;
66327;SDS011;53133;52.862;6.602;2023-07-29T01:49:52;12.98;;;8.30;;
66327;SDS011;53133;52.862;6.602;2023-07-29T01:52:17;10.15;;;7.70;;
66327;SDS011;53133;52.862;6.602;2023-07-29T01:54:43;9.57;;;7.80;;
66327;SDS011;53133;52.862;6.602;2023-07-29T01:57:09;9.27;;;7.45;;
66327;SDS011;53133;52.862;6.602;2023-07-29T01:59:34;10.35;;;7.50;;
66327;SDS011;53133;52.862;6.602;2023-07-29T02:02:00;11.07;;;7.97;;
66327;SDS011;53133;52.862;6.602;2023-07-29T02:04:25;9.60;;;7.43;;
66327;SDS011;53133;52.862;6.602;2023-07-29T02:06:51;8.45;;;7.03;;
66327;SDS011;53133;52.862;6.602;2023-07-29T02:09:17;8.93;;;7.03;;
66327;SDS011;53133;52.862;6.602;2023-07-29T02:11:42;10.18;;;7.65;;
66327;SDS011;53133;52.862;6.602;2023-07-29T02:14:08;9.45;;;7.10;;
66327;SDS011;53133;52.862;6.602;2023-07-29T02:16:33;8.85;;;6.88;;
66327;SDS011;53133;52.862;6.602;2023-07-29T02:18:59;10.00;;;7.00;;
66327;SDS011;53133;52.862;6.602;2023-07-29T02:21:25;10.57;;;6.05;;
66327;SDS011;53133;52.862;6.602;2023-07-29T02:23:51;10.50;;;6.43;;
66327;SDS011;53133;52.862;6.602;2023-07-29T02:26:17;10.45;;;6.68;;
66327;SDS011;53133;52.862;6.602;2023-07-29T02:28:42;9.35;;;5.78;;
66327;SDS011;53133;52.862;6.602;2023-07-29T02:31:19;7.43;;;5.78;;
66327;SDS011;53133;52.862;6.602;2023-07-29T02:33:49;9.65;;;6.55;;
66327;SDS011;53133;52.862;6.602;2023-07-29T02:36:15;8.13;;;6.05;;
66327;SDS011;53133;52.862;6.602;2023-07-29T02:38:41;14.18;;;6.85;;
66327;SDS011;53133;52.862;6.602;2023-07-29T02:41:08;10.20;;;6.00;;
66327;SDS011;53133;52.862;6.602;2023-07-29T02:43:34;7.55;;;5.95;;
66327;SDS011;53133;52.862;6.602;2023-07-29T02:46:01;7.72;;;5.88;;
66327;SDS011;53133;52.862;6.602;2023-07-29T02:48:27;6.60;;;5.78;;
66327;SDS011;53133;52.862;6.602;2023-07-29T02:50:53;7.47;;;6.03;;
66327;SDS011;53133;52.862;6.602;2023-07-29T02:53:19;9.68;;;6.35;;
66327;SDS011;53133;52.862;6.602;2023-07-29T02:55:45;8.95;;;6.28;;
66327;SDS011;53133;52.862;6.602;2023-07-29T02:58:10;8.85;;;5.78;;
66327;SDS011;53133;52.862;6.602;2023-07-29T03:00:36;6.75;;;5.03;;
66327;SDS011;53133;52.862;6.602;2023-07-29T03:03:02;7.68;;;5.90;;
66327;SDS011;53133;52.862;6.602;2023-07-29T03:05:27;10.52;;;6.00;;
66327;SDS011;53133;52.862;6.602;2023-07-29T03:07:53;7.93;;;5.30;;
66327;SDS011;53133;52.862;6.602;2023-07-29T03:10:19;8.13;;;5.60;;
66327;SDS011;53133;52.862;6.602;2023-07-29T03:12:45;7.55;;;5.88;;
66327;SDS011;53133;52.862;6.602;2023-07-29T03:15:11;7.07;;;5.55;;
66327;SDS011;53133;52.862;6.602;2023-07-29T03:17:37;9.18;;;6.10;;
66327;SDS011;53133;52.862;6.602;2023-07-29T03:20:03;7.90;;;5.80;;
66327;SDS011;53133;52.862;6.602;2023-07-29T03:22:28;7.25;;;5.70;;
66327;SDS011;53133;52.862;6.602;2023-07-29T03:24:54;8.35;;;5.60;;
66327;SDS011;53133;52.862;6.602;2023-07-29T03:27:20;9.55;;;5.57;;
66327;SDS011;53133;52.862;6.602;2023-07-29T03:29:45;8.30;;;5.60;;
66327;SDS011;53133;52.862;6.602;2023-07-29T03:32:11;7.10;;;5.05;;
66327;SDS011;53133;52.862;6.602;2023-07-29T03:34:37;6.35;;;5.10;;
66327;SDS011;53133;52.862;6.602;2023-07-29T03:37:03;6.18;;;5.15;;
66327;SDS011;53133;52.862;6.602;2023-07-29T03:39:29;6.63;;;4.53;;
66327;SDS011;53133;52.862;6.602;2023-07-29T03:41:54;6.40;;;4.90;;
66327;SDS011;53133;52.862;6.602;2023-07-29T03:44:20;8.70;;;5.50;;
66327;SDS011;53133;52.862;6.602;2023-07-29T03:46:46;5.75;;;4.90;;
66327;SDS011;53133;52.862;6.602;2023-07-29T03:49:11;7.45;;;4.82;;
66327;SDS011;53133;52.862;6.602;2023-07-29T03:51:37;9.30;;;4.90;;
66327;SDS011;53133;52.862;6.602;2023-07-29T03:54:02;7.82;;;4.55;;
66327;SDS011;53133;52.862;6.602;2023-07-29T03:56:28;7.38;;;5.05;;
66327;SDS011;53133;52.862;6.602;2023-07-29T03:58:57;10.18;;;4.75;;
66327;SDS011;53133;52.862;6.602;2023-07-29T04:01:28;5.22;;;4.25;;
66327;SDS011;53133;52.862;6.602;2023-07-29T04:03:54;6.07;;;4.20;;
66327;SDS011;53133;52.862;6.602;2023-07-29T04:06:20;5.47;;;4.25;;
66327;SDS011;53133;52.862;6.602;2023-07-29T04:08:45;4.88;;;4.20;;
66327;SDS011;53133;52.862;6.602;2023-07-29T04:11:11;6.65;;;4.45;;
66327;SDS011;53133;52.862;6.602;2023-07-29T04:13:37;5.75;;;4.00;;
66327;SDS011;53133;52.862;6.602;2023-07-29T04:16:03;4.05;;;3.60;;
66327;SDS011;53133;52.862;6.602;2023-07-29T04:18:29;5.45;;;4.05;;
66327;SDS011;53133;52.862;6.602;2023-07-29T04:20:55;5.15;;;3.72;;
66327;SDS011;53133;52.862;6.602;2023-07-29T04:23:20;5.00;;;3.67;;
66327;SDS011;53133;52.862;6.602;2023-07-29T04:25:46;5.80;;;4.20;;
66327;SDS011;53133;52.862;6.602;2023-07-29T04:28:12;5.95;;;3.78;;
66327;SDS011;53133;52.862;6.602;2023-07-29T04:30:37;5.53;;;3.88;;
66327;SDS011;53133;52.862;6.602;2023-07-29T04:33:03;5.45;;;3.53;;
66327;SDS011;53133;52.862;6.602;2023-07-29T04:35:29;6.38;;;3.70;;
66327;SDS011;53133;52.862;6.602;2023-07-29T04:37:54;5.45;;;3.53;;
66327;SDS011;53133;52.862;6.602;2023-07-29T04:40:20;4.88;;;3.30;;
66327;SDS011;53133;52.862;6.602;2023-07-29T04:42:47;5.00;;;3.60;;
66327;SDS011;53133;52.862;6.602;2023-07-29T04:45:13;4.35;;;2.67;;
66327;SDS011;53133;52.862;6.602;2023-07-29T04:47:39;7.25;;;3.40;;
66327;SDS011;53133;52.862;6.602;2023-07-29T04:50:04;3.78;;;3.15;;
66327;SDS011;53133;52.862;6.602;2023-07-29T04:52:31;4.28;;;2.80;;
66327;SDS011;53133;52.862;6.602;2023-07-29T04:54:56;3.75;;;3.13;;
66327;SDS011;53133;52.862;6.602;2023-07-29T04:57:22;5.07;;;3.53;;
66327;SDS011;53133;52.862;6.602;2023-07-29T04:59:48;4.85;;;3.35;;
66327;SDS011;53133;52.862;6.602;2023-07-29T05:02:13;6.45;;;3.05;;
66327;SDS011;53133;52.862;6.602;2023-07-29T05:04:39;5.80;;;3.00;;
66327;SDS011;53133;52.862;6.602;2023-07-29T05:07:04;5.10;;;3.22;;
66327;SDS011;53133;52.862;6.602;2023-07-29T05:09:30;3.53;;;2.65;;
66327;SDS011;53133;52.862;6.602;2023-07-29T05:11:56;4.93;;;3.13;;
66327;SDS011;53133;52.862;6.602;2023-07-29T05:14:21;3.75;;;2.83;;
66327;SDS011;53133;52.862;6.602;2023-07-29T05:16:47;5.85;;;3.00;;
66327;SDS011;53133;52.862;6.602;2023-07-29T05:19:14;4.63;;;2.83;;
66327;SDS011;53133;52.862;6.602;2023-07-29T05:21:39;4.15;;;2.90;;
66327;SDS011;53133;52.862;6.602;2023-07-29T05:24:05;4.72;;;2.70;;
66327;SDS011;53133;52.862;6.602;2023-07-29T05:26:32;2.97;;;2.67;;
66327;SDS011;53133;52.862;6.602;2023-07-29T05:28:58;3.90;;;2.50;;
66327;SDS011;53133;52.862;6.602;2023-07-29T05:31:23;5.20;;;3.10;;
66327;SDS011;53133;52.862;6.602;2023-07-29T05:33:49;6.20;;;3.10;;
66327;SDS011;53133;52.862;6.602;2023-07-29T05:36:14;4.68;;;3.20;;
66327;SDS011;53133;52.862;6.602;2023-07-29T05:38:40;5.85;;;3.13;;
66327;SDS011;53133;52.862;6.602;2023-07-29T05:41:06;4.65;;;3.17;;
66327;SDS011;53133;52.862;6.602;2023-07-29T05:43:31;5.25;;;3.17;;
66327;SDS011;53133;52.862;6.602;2023-07-29T05:45:57;5.25;;;3.03;;
66327;SDS011;53133;52.862;6.602;2023-07-29T05:48:23;5.55;;;3.28;;
66327;SDS011;53133;52.862;6.602;2023-07-29T05:50:48;4.05;;;3.10;;
66327;SDS011;53133;52.862;6.602;2023-07-29T05:53:15;6.68;;;3.55;;
66327;SDS011;53133;52.862;6.602;2023-07-29T05:55:40;5.78;;;3.95;;
66327;SDS011;53133;52.862;6.602;2023-07-29T05:58:06;4.70;;;3.45;;
66327;SDS011;53133;52.862;6.602;2023-07-29T06:00:32;6.05;;;3.47;;
66327;SDS011;53133;52.862;6.602;2023-07-29T06:02:57;5.00;;;3.38;;
66327;SDS011;53133;52.862;6.602;2023-07-29T06:05:23;7.63;;;3.80;;
66327;SDS011;53133;52.862;6.602;2023-07-29T06:07:49;6.45;;;4.47;;
66327;SDS011;53133;52.862;6.602;2023-07-29T06:10:15;8.52;;;4.18;;
66327;SDS011;53133;52.862;6.602;2023-07-29T06:12:47;7.55;;;4.43;;
66327;SDS011;53133;52.862;6.602;2023-07-29T06:15:13;7.28;;;4.18;;
66327;SDS011;53133;52.862;6.602;2023-07-29T06:17:39;8.00;;;4.70;;
66327;SDS011;53133;52.862;6.602;2023-07-29T06:20:06;8.52;;;4.38;;
66327;SDS011;53133;52.862;6.602;2023-07-29T06:22:32;7.72;;;4.00;;
66327;SDS011;53133;52.862;6.602;2023-07-29T06:24:57;10.32;;;4.90;;
66327;SDS011;53133;52.862;6.602;2023-07-29T06:27:23;6.90;;;4.68;;
66327;SDS011;53133;52.862;6.602;2023-07-29T06:29:50;8.52;;;4.80;;
66327;SDS011;53133;52.862;6.602;2023-07-29T06:32:15;7.78;;;4.22;;
66327;SDS011;53133;52.862;6.602;2023-07-29T06:34:41;7.70;;;4.50;;
66327;SDS011;53133;52.862;6.602;2023-07-29T06:37:06;6.82;;;4.43;;
66327;SDS011;53133;52.862;6.602;2023-07-29T06:39:32;9.23;;;4.47;;
66327;SDS011;53133;52.862;6.602;2023-07-29T06:41:58;9.73;;;5.15;;
66327;SDS011;53133;52.862;6.602;2023-07-29T06:44:23;8.55;;;4.47;;
66327;SDS011;53133;52.862;6.602;2023-07-29T06:46:49;8.30;;;4.70;;
66327;SDS011;53133;52.862;6.602;2023-07-29T06:49:15;8.63;;;4.68;;
66327;SDS011;53133;52.862;6.602;2023-07-29T06:51:40;7.35;;;4.60;;
66327;SDS011;53133;52.862;6.602;2023-07-29T06:54:06;6.15;;;4.95;;
66327;SDS011;53133;52.862;6.602;2023-07-29T06:56:31;11.73;;;5.05;;
66327;SDS011;53133;52.862;6.602;2023-07-29T06:58:57;8.30;;;4.60;;
66327;SDS011;53133;52.862;6.602;2023-07-29T07:01:22;11.07;;;5.40;;
66327;SDS011;53133;52.862;6.602;2023-07-29T07:03:48;9.50;;;5.32;;
66327;SDS011;53133;52.862;6.602;2023-07-29T07:06:14;9.45;;;5.00;;
66327;SDS011;53133;52.862;6.602;2023-07-29T07:08:39;8.27;;;5.45;;
66327;SDS011;53133;52.862;6.602;2023-07-29T07:11:06;9.48;;;5.25;;
66327;SDS011;53133;52.862;6.602;2023-07-29T07:13:32;8.05;;;5.10;;
66327;SDS011;53133;52.862;6.602;2023-07-29T07:15:58;10.88;;;5.38;;
66327;SDS011;53133;52.862;6.602;2023-07-29T07:18:23;8.10;;;5.22;;
66327;SDS011;53133;52.862;6.602;2023-07-29T07:20:49;9.02;;;5.90;;
66327;SDS011;53133;52.862;6.602;2023-07-29T07:23:15;12.07;;;6.00;;
66327;SDS011;53133;52.862;6.602;2023-07-29T07:25:41;8.90;;;5.88;;
66327;SDS011;53133;52.862;6.602;2023-07-29T07:28:07;10.43;;;5.80;;
66327;SDS011;53133;52.862;6.602;2023-07-29T07:30:34;10.30;;;5.82;;
66327;SDS011;53133;52.862;6.602;2023-07-29T07:32:59;10.40;;;5.90;;
66327;SDS011;53133;52.862;6.602;2023-07-29T07:35:25;9.98;;;6.20;;
66327;SDS011;53133;52.862;6.602;2023-07-29T07:37:51;11.65;;;6.32;;
66327;SDS011;53133;52.862;6.602;2023-07-29T07:40:16;12.65;;;6.97;;
66327;SDS011;53133;52.862;6.602;2023-07-29T07:42:42;8.43;;;6.32;;
66327;SDS011;53133;52.862;6.602;2023-07-29T07:45:08;8.80;;;6.07;;
66327;SDS011;53133;52.862;6.602;2023-07-29T07:47:34;9.43;;;6.10;;
66327;SDS011;53133;52.862;6.602;2023-07-29T07:49:59;8.55;;;6.28;;
66327;SDS011;53133;52.862;6.602;2023-07-29T07:52:25;10.10;;;6.03;;
66327;SDS011;53133;52.862;6.602;2023-07-29T07:54:54;8.00;;;5.90;;
66327;SDS011;53133;52.862;6.602;2023-07-29T07:57:22;8.45;;;5.40;;
66327;SDS011;53133;52.862;6.602;2023-07-29T07:59:48;9.05;;;5.50;;
66327;SDS011;53133;52.862;6.602;2023-07-29T08:02:13;8.25;;;5.32;;
66327;SDS011;53133;52.862;6.602;2023-07-29T08:04:39;9.23;;;5.40;;
66327;SDS011;53133;52.862;6.602;2023-07-29T08:07:05;6.10;;;4.72;;
66327;SDS011;53133;52.862;6.602;2023-07-29T08:09:31;6.82;;;5.13;;
66327;SDS011;53133;52.862;6.602;2023-07-29T08:11:56;6.80;;;4.70;;
66327;SDS011;53133;52.862;6.602;2023-07-29T08:14:22;7.47;;;5.05;;
66327;SDS011;53133;52.862;6.602;2023-07-29T08:16:47;7.22;;;4.72;;
66327;SDS011;53133;52.862;6.602;2023-07-29T08:19:13;8.30;;;5.07;;
66327;SDS011;53133;52.862;6.602;2023-07-29T08:21:39;7.38;;;4.90;;
66327;SDS011;53133;52.862;6.602;2023-07-29T08:24:04;6.43;;;4.55;;
66327;SDS011;53133;52.862;6.602;2023-07-29T08:26:31;6.45;;;4.75;;
66327;SDS011;53133;52.862;6.602;2023-07-29T08:28:57;6.25;;;5.15;;
66327;SDS011;53133;52.862;6.602;2023-07-29T08:31:23;7.28;;;5.20;;
66327;SDS011;53133;52.862;6.602;2023-07-29T08:33:48;5.90;;;5.25;;
66327;SDS011;53133;52.862;6.602;2023-07-29T08:36:14;7.70;;;5.35;;
66327;SDS011;53133;52.862;6.602;2023-07-29T08:38:39;5.65;;;4.15;;
66327;SDS011;53133;52.862;6.602;2023-07-29T08:43:48;4.72;;;4.20;;
66327;SDS011;53133;52.862;6.602;2023-07-29T08:46:45;6.47;;;3.97;;
66327;SDS011;53133;52.862;6.602;2023-07-29T08:49:11;6.47;;;4.30;;
66327;SDS011;53133;52.862;6.602;2023-07-29T08:51:43;7.55;;;3.90;;
66327;SDS011;53133;52.862;6.602;2023-07-29T08:54:11;6.88;;;4.22;;
66327;SDS011;53133;52.862;6.602;2023-07-29T08:56:38;5.82;;;4.32;;
66327;SDS011;53133;52.862;6.602;2023-07-29T08:59:05;6.07;;;4.20;;
66327;SDS011;53133;52.862;6.602;2023-07-29T09:01:32;4.75;;;4.10;;
66327;SDS011;53133;52.862;6.602;2023-07-29T09:03:59;6.05;;;4.20;;
66327;SDS011;53133;52.862;6.602;2023-07-29T09:06:25;4.28;;;3.50;;
66327;SDS011;53133;52.862;6.602;2023-07-29T09:08:53;6.72;;;3.90;;
66327;SDS011;53133;52.862;6.602;2023-07-29T09:11:19;5.88;;;3.45;;
66327;SDS011;53133;52.862;6.602;2023-07-29T09:13:46;5.40;;;3.22;;
66327;SDS011;53133;52.862;6.602;2023-07-29T09:16:12;4.75;;;3.50;;
66327;SDS011;53133;52.862;6.602;2023-07-29T09:18:38;6.45;;;2.92;;
66327;SDS011;53133;52.862;6.602;2023-07-29T09:21:03;4.18;;;3.08;;
66327;SDS011;53133;52.862;6.602;2023-07-29T09:23:38;4.80;;;3.35;;
66327;SDS011;53133;52.862;6.602;2023-07-29T09:26:07;3.53;;;2.80;;
66327;SDS011;53133;52.862;6.602;2023-07-29T09:28:34;6.50;;;2.70;;
66327;SDS011;53133;52.862;6.602;2023-07-29T09:31:01;11.30;;;4.78;;
66327;SDS011;53133;52.862;6.602;2023-07-29T09:33:27;5.07;;;2.90;;
66327;SDS011;53133;52.862;6.602;2023-07-29T09:35:53;5.20;;;2.75;;
66327;SDS011;53133;52.862;6.602;2023-07-29T09:38:25;3.00;;;2.55;;
66327;SDS011;53133;52.862;6.602;2023-07-29T09:40:54;3.85;;;2.72;;
66327;SDS011;53133;52.862;6.602;2023-07-29T09:43:24;4.88;;;2.63;;
66327;SDS011;53133;52.862;6.602;2023-07-29T09:45:53;5.85;;;2.88;;
66327;SDS011;53133;52.862;6.602;2023-07-29T09:48:22;6.93;;;2.78;;
66327;SDS011;53133;52.862;6.602;2023-07-29T09:50:48;3.85;;;2.67;;
66327;SDS011;53133;52.862;6.602;2023-07-29T09:53:13;4.13;;;2.60;;
66327;SDS011;53133;52.862;6.602;2023-07-29T09:55:39;5.28;;;2.60;;
66327;SDS011;53133;52.862;6.602;2023-07-29T09:58:10;6.22;;;2.60;;
66327;SDS011;53133;52.862;6.602;2023-07-29T10:00:36;4.20;;;2.53;;
66327;SDS011;53133;52.862;6.602;2023-07-29T10:03:04;5.50;;;2.75;;
66327;SDS011;53133;52.862;6.602;2023-07-29T10:05:30;6.85;;;2.17;;
66327;SDS011;53133;52.862;6.602;2023-07-29T10:07:56;4.95;;;2.30;;
66327;SDS011;53133;52.862;6.602;2023-07-29T10:10:22;4.93;;;2.72;;
66327;SDS011;53133;52.862;6.602;2023-07-29T10:12:47;4.25;;;2.20;;
66327;SDS011;53133;52.862;6.602;2023-07-29T10:15:14;4.70;;;2.20;;
66327;SDS011;53133;52.862;6.602;2023-07-29T10:17:40;4.30;;;2.38;;
66327;SDS011;53133;52.862;6.602;2023-07-29T10:20:07;4.22;;;2.50;;
66327;SDS011;53133;52.862;6.602;2023-07-29T10:22:41;5.60;;;2.58;;
66327;SDS011;53133;52.862;6.602;2023-07-29T10:25:09;4.50;;;2.50;;
66327;SDS011;53133;52.862;6.602;2023-07-29T10:27:49;4.05;;;2.40;;
66327;SDS011;53133;52.862;6.602;2023-07-29T10:30:19;6.40;;;2.63;;
66327;SDS011;53133;52.862;6.602;2023-07-29T10:32:45;6.45;;;2.58;;
66327;SDS011;53133;52.862;6.602;2023-07-29T10:35:12;4.35;;;2.60;;
66327;SDS011;53133;52.862;6.602;2023-07-29T10:37:38;3.40;;;2.67;;
66327;SDS011;53133;52.862;6.602;2023-07-29T10:40:06;4.57;;;2.55;;
66327;SDS011;53133;52.862;6.602;2023-07-29T10:42:33;5.70;;;2.92;;
66327;SDS011;53133;52.862;6.602;2023-07-29T10:44:58;3.83;;;3.00;;
66327;SDS011;53133;52.862;6.602;2023-07-29T10:47:25;3.17;;;2.40;;
66327;SDS011;53133;52.862;6.602;2023-07-29T10:49:53;3.85;;;3.28;;
66327;SDS011;53133;52.862;6.602;2023-07-29T10:55:01;3.67;;;3.10;;
66327;SDS011;53133;52.862;6.602;2023-07-29T10:57:32;4.35;;;3.15;;
66327;SDS011;53133;52.862;6.602;2023-07-29T10:59:59;4.03;;;3.30;;
66327;SDS011;53133;52.862;6.602;2023-07-29T11:02:29;5.20;;;3.53;;
66327;SDS011;53133;52.862;6.602;2023-07-29T11:04:56;6.40;;;4.00;;
66327;SDS011;53133;52.862;6.602;2023-07-29T11:07:22;5.55;;;3.25;;
66327;SDS011;53133;52.862;6.602;2023-07-29T11:09:52;4.75;;;2.53;;
66327;SDS011;53133;52.862;6.602;2023-07-29T11:12:36;4.95;;;2.80;;
66327;SDS011;53133;52.862;6.602;2023-07-29T11:20:06;5.93;;;3.50;;
66327;SDS011;53133;52.862;6.602;2023-07-29T11:22:33;6.53;;;3.70;;
66327;SDS011;53133;52.862;6.602;2023-07-29T11:24:59;6.55;;;4.25;;
66327;SDS011;53133;52.862;6.602;2023-07-29T11:27:25;5.82;;;4.03;;
66327;SDS011;53133;52.862;6.602;2023-07-29T11:29:50;3.40;;;3.10;;
66327;SDS011;53133;52.862;6.602;2023-07-29T11:32:25;6.28;;;2.78;;
66327;SDS011;53133;52.862;6.602;2023-07-29T11:34:51;4.78;;;2.67;;
66327;SDS011;53133;52.862;6.602;2023-07-29T11:37:17;4.95;;;2.50;;
66327;SDS011;53133;52.862;6.602;2023-07-29T11:39:44;5.40;;;2.67;;
66327;SDS011;53133;52.862;6.602;2023-07-29T11:42:13;4.68;;;2.40;;
66327;SDS011;53133;52.862;6.602;2023-07-29T11:44:40;4.32;;;2.33;;
66327;SDS011;53133;52.862;6.602;2023-07-29T11:47:09;3.70;;;2.22;;
66327;SDS011;53133;52.862;6.602;2023-07-29T11:49:37;3.70;;;2.57;;
66327;SDS011;53133;52.862;6.602;2023-07-29T11:52:06;5.80;;;2.80;;
66327;SDS011;53133;52.862;6.602;2023-07-29T11:54:36;5.60;;;2.78;;
66327;SDS011;53133;52.862;6.602;2023-07-29T11:57:03;5.40;;;2.70;;
66327;SDS011;53133;52.862;6.602;2023-07-29T11:59:34;6.50;;;2.72;;
66327;SDS011;53133;52.862;6.602;2023-07-29T12:02:00;4.65;;;2.50;;
66327;SDS011;53133;52.862;6.602;2023-07-29T12:04:27;5.95;;;2.47;;
66327;SDS011;53133;52.862;6.602;2023-07-29T12:06:54;4.75;;;2.28;;
66327;SDS011;53133;52.862;6.602;2023-07-29T12:09:20;5.75;;;2.70;;
66327;SDS011;53133;52.862;6.602;2023-07-29T12:11:46;6.30;;;2.47;;
66327;SDS011;53133;52.862;6.602;2023-07-29T12:14:12;6.85;;;2.60;;
66327;SDS011;53133;52.862;6.602;2023-07-29T12:16:41;3.22;;;2.38;;
66327;SDS011;53133;52.862;6.602;2023-07-29T12:19:13;3.55;;;2.60;;
66327;SDS011;53133;52.862;6.602;2023-07-29T12:21:41;3.75;;;2.38;;
66327;SDS011;53133;52.862;6.602;2023-07-29T12:24:07;5.07;;;2.53;;
66327;SDS011;53133;52.862;6.602;2023-07-29T12:26:33;6.70;;;2.75;;
66327;SDS011;53133;52.862;6.602;2023-07-29T12:29:10;3.80;;;2.40;;
66327;SDS011;53133;52.862;6.602;2023-07-29T12:31:39;3.58;;;2.45;;
66327;SDS011;53133;52.862;6.602;2023-07-29T12:34:05;3.67;;;2.25;;
66327;SDS011;53133;52.862;6.602;2023-07-29T12:36:41;6.18;;;2.40;;
66327;SDS011;53133;52.862;6.602;2023-07-29T12:41:47;3.20;;;2.22;;
66327;SDS011;53133;52.862;6.602;2023-07-29T12:44:13;4.28;;;2.20;;
66327;SDS011;53133;52.862;6.602;2023-07-29T12:46:39;4.63;;;2.50;;
66327;SDS011;53133;52.862;6.602;2023-07-29T12:49:05;5.53;;;2.80;;
66327;SDS011;53133;52.862;6.602;2023-07-29T12:51:31;5.18;;;2.40;;
66327;SDS011;53133;52.862;6.602;2023-07-29T12:53:57;3.85;;;2.50;;
66327;SDS011;53133;52.862;6.602;2023-07-29T12:56:22;6.20;;;2.60;;
66327;SDS011;53133;52.862;6.602;2023-07-29T12:58:48;4.35;;;2.60;;
66327;SDS011;53133;52.862;6.602;2023-07-29T13:01:14;4.72;;;2.00;;
66327;SDS011;53133;52.862;6.602;2023-07-29T13:03:43;3.75;;;2.22;;
66327;SDS011;53133;52.862;6.602;2023-07-29T13:06:11;4.65;;;2.53;;
66327;SDS011;53133;52.862;6.602;2023-07-29T13:08:37;5.60;;;2.20;;
66327;SDS011;53133;52.862;6.602;2023-07-29T13:11:03;3.28;;;2.13;;
66327;SDS011;53133;52.862;6.602;2023-07-29T13:13:29;3.75;;;2.08;;
66327;SDS011;53133;52.862;6.602;2023-07-29T13:15:54;2.90;;;1.80;;
66327;SDS011;53133;52.862;6.602;2023-07-29T13:18:21;3.83;;;1.90;;
66327;SDS011;53133;52.862;6.602;2023-07-29T13:20:46;3.45;;;1.80;;
66327;SDS011;53133;52.862;6.602;2023-07-29T13:23:12;2.97;;;1.55;;
66327;SDS011;53133;52.862;6.602;2023-07-29T13:25:38;3.63;;;2.10;;
66327;SDS011;53133;52.862;6.602;2023-07-29T13:28:03;4.47;;;2.03;;
66327;SDS011;53133;52.862;6.602;2023-07-29T13:30:29;2.97;;;1.52;;
66327;SDS011;53133;52.862;6.602;2023-07-29T13:32:55;3.35;;;1.38;;
66327;SDS011;53133;52.862;6.602;2023-07-29T13:35:21;2.70;;;1.48;;
66327;SDS011;53133;52.862;6.602;2023-07-29T13:37:47;3.38;;;1.42;;
66327;SDS011;53133;52.862;6.602;2023-07-29T13:40:12;3.30;;;1.27;;
66327;SDS011;53133;52.862;6.602;2023-07-29T13:42:38;3.13;;;1.65;;
66327;SDS011;53133;52.862;6.602;2023-07-29T13:45:04;4.57;;;1.77;;
66327;SDS011;53133;52.862;6.602;2023-07-29T13:47:30;2.03;;;1.48;;
66327;SDS011;53133;52.862;6.602;2023-07-29T13:49:55;4.90;;;1.60;;
66327;SDS011;53133;52.862;6.602;2023-07-29T13:52:21;4.38;;;1.60;;
66327;SDS011;53133;52.862;6.602;2023-07-29T13:54:46;2.22;;;1.48;;
66327;SDS011;53133;52.862;6.602;2023-07-29T13:57:12;5.45;;;2.20;;
66327;SDS011;53133;52.862;6.602;2023-07-29T13:59:38;5.45;;;2.40;;
66327;SDS011;53133;52.862;6.602;2023-07-29T14:02:04;5.68;;;2.53;;
66327;SDS011;53133;52.862;6.602;2023-07-29T14:04:31;3.80;;;2.20;;
66327;SDS011;53133;52.862;6.602;2023-07-29T14:06:57;5.28;;;2.58;;
66327;SDS011;53133;52.862;6.602;2023-07-29T14:09:23;5.68;;;2.50;;
66327;SDS011;53133;52.862;6.602;2023-07-29T14:11:49;3.67;;;2.33;;
66327;SDS011;53133;52.862;6.602;2023-07-29T14:14:14;4.75;;;2.30;;
66327;SDS011;53133;52.862;6.602;2023-07-29T14:16:40;4.03;;;1.98;;
66327;SDS011;53133;52.862;6.602;2023-07-29T14:19:06;2.75;;;2.08;;
66327;SDS011;53133;52.862;6.602;2023-07-29T14:21:31;6.45;;;2.35;;
66327;SDS011;53133;52.862;6.602;2023-07-29T14:23:57;4.20;;;1.90;;
66327;SDS011;53133;52.862;6.602;2023-07-29T14:26:23;3.90;;;2.38;;
66327;SDS011;53133;52.862;6.602;2023-07-29T14:28:48;3.30;;;2.00;;
66327;SDS011;53133;52.862;6.602;2023-07-29T14:31:15;3.85;;;2.20;;
66327;SDS011;53133;52.862;6.602;2023-07-29T14:33:42;4.53;;;1.92;;
66327;SDS011;53133;52.862;6.602;2023-07-29T14:36:08;4.03;;;2.33;;
66327;SDS011;53133;52.862;6.602;2023-07-29T14:38:34;4.90;;;2.30;;
66327;SDS011;53133;52.862;6.602;2023-07-29T14:41:00;4.70;;;2.13;;
66327;SDS011;53133;52.862;6.602;2023-07-29T14:43:26;3.00;;;2.30;;
66327;SDS011;53133;52.862;6.602;2023-07-29T14:45:52;4.50;;;2.10;;
66327;SDS011;53133;52.862;6.602;2023-07-29T14:48:17;5.22;;;2.33;;
66327;SDS011;53133;52.862;6.602;2023-07-29T14:50:43;4.68;;;2.20;;
66327;SDS011;53133;52.862;6.602;2023-07-29T14:53:09;5.05;;;2.20;;
66327;SDS011;53133;52.862;6.602;2023-07-29T14:55:36;6.80;;;2.50;;
66327;SDS011;53133;52.862;6.602;2023-07-29T14:58:02;4.28;;;2.40;;
66327;SDS011;53133;52.862;6.602;2023-07-29T15:00:27;4.25;;;2.50;;
66327;SDS011;53133;52.862;6.602;2023-07-29T15:02:53;3.83;;;2.50;;